Time;durP1;ratioP1;P1;durP2;ratioP2;P2;SDS_P1;SDS_P2;PMS_P1;PMS_P2;Temp;Humidity;BMP_temperature;BMP_pressure;BME280_temperature;BME280_humidity;BME280_pressure;Samples;Min_cycle;Max_cycle;Signal;HPM_P1;HPM_P2
2022/08/31 00:05:04;;;;;;;5.72;1.60;;;;;;;;;;4800677;29;20507;-71
2022/08/31 00:07:34;;;;;;;8.07;2.00;;;;;;;;;;4784688;29;20047;-71
2022/08/31 00:10:13;;;;;;;3.83;1.88;;;;;;;;;;4800117;29;20065;-72
2022/08/31 00:12:48;;;;;;;4.28;1.90;;;;;;;;;;4800869;29;20058;-72
2022/08/31 00:15:25;;;;;;;3.00;1.42;;;;;;;;;;4800429;29;20047;-70
2022/08/31 00:17:55;;;;;;;2.47;1.63;;;;;;;;;;4800479;29;20062;-72
2022/08/31 00:20:27;;;;;;;4.47;1.92;;;;;;;;;;4800229;29;20051;-71
2022/08/31 00:23:07;;;;;;;3.80;1.70;;;;;;;;;;4800640;29;20050;-72
2022/08/31 00:25:40;;;;;;;9.35;2.08;;;;;;;;;;4800010;29;20051;-72
2022/08/31 00:28:12;;;;;;;5.35;1.95;;;;;;;;;;4800212;29;20126;-70
2022/08/31 00:30:43;;;;;;;6.30;2.47;;;;;;;;;;4784043;29;20051;-71
2022/08/31 00:33:13;;;;;;;6.05;2.30;;;;;;;;;;4800035;29;20070;-76
2022/08/31 00:35:43;;;;;;;5.63;2.33;;;;;;;;;;4800344;29;20503;-72
2022/08/31 00:38:14;;;;;;;5.05;2.30;;;;;;;;;;4783850;29;20054;-72
2022/08/31 00:40:45;;;;;;;4.38;2.10;;;;;;;;;;4800142;29;20538;-71
2022/08/31 00:43:36;;;;;;;5.28;2.58;;;;;;;;;;4800052;29;20062;-72
2022/08/31 00:46:07;;;;;;;5.18;2.30;;;;;;;;;;4799864;29;20054;-72
2022/08/31 00:48:43;;;;;;;6.43;3.75;;;;;;;;;;4797519;29;20049;-71
2022/08/31 00:51:14;;;;;;;6.55;2.60;;;;;;;;;;4795675;29;20558;-72
2022/08/31 00:54:06;;;;;;;4.13;2.30;;;;;;;;;;4798417;29;20059;-70
2022/08/31 00:57:14;;;;;;;6.47;3.40;;;;;;;;;;4796912;29;20066;-71
2022/08/31 01:00:04;;;;;;;3.97;2.80;;;;;;;;;;4781082;29;20134;-72
2022/08/31 01:02:53;;;;;;;6.07;3.03;;;;;;;;;;4761661;29;20055;-72
2022/08/31 01:06:01;;;;;;;6.78;3.17;;;;;;;;;;4782490;29;20519;-71
2022/08/31 01:09:07;;;;;;;6.00;2.95;;;;;;;;;;4726153;30;20488;-72
2022/08/31 01:11:56;;;;;;;7.30;3.53;;;;;;;;;;4726070;30;20057;-71
2022/08/31 01:25:10;;;;;;;5.85;3.30;;;;;;;;;;4802506;29;20507;-71
2022/08/31 01:27:41;;;;;;;8.45;4.00;;;;;;;;;;4799377;29;20548;-72
2022/08/31 01:30:19;;;;;;;4.63;3.47;;;;;;;;;;4799827;29;20063;-72
2022/08/31 01:32:49;;;;;;;7.25;3.67;;;;;;;;;;4782270;29;20078;-72
2022/08/31 01:35:20;;;;;;;8.40;3.90;;;;;;;;;;4799568;29;20419;-72
2022/08/31 01:37:51;;;;;;;8.05;3.97;;;;;;;;;;4783495;29;20507;-71
2022/08/31 01:40:30;;;;;;;12.85;3.78;;;;;;;;;;4783652;29;20063;-72
2022/08/31 01:43:01;;;;;;;7.82;4.15;;;;;;;;;;4799621;29;20055;-70
2022/08/31 01:45:31;;;;;;;8.82;4.10;;;;;;;;;;4799390;29;20518;-72
2022/08/31 01:48:02;;;;;;;11.05;3.40;;;;;;;;;;4782623;29;20055;-72
2022/08/31 01:50:31;;;;;;;7.30;3.72;;;;;;;;;;4799449;29;20059;-72
2022/08/31 01:53:02;;;;;;;6.68;4.00;;;;;;;;;;4782983;29;20530;-71
2022/08/31 01:55:32;;;;;;;5.80;4.03;;;;;;;;;;4783092;29;20083;-73
2022/08/31 01:58:03;;;;;;;6.13;4.05;;;;;;;;;;4783615;29;20434;-72
2022/08/31 02:00:51;;;;;;;5.72;3.85;;;;;;;;;;4802018;29;20661;-71
2022/08/31 02:03:21;;;;;;;5.68;3.78;;;;;;;;;;4798868;29;20058;-74
2022/08/31 02:05:52;;;;;;;7.22;3.65;;;;;;;;;;4799180;29;20043;-72
2022/08/31 02:08:20;;;;;;;6.32;4.15;;;;;;;;;;4782926;29;20062;-72
2022/08/31 02:10:51;;;;;;;5.28;3.75;;;;;;;;;;4782530;29;20451;-72
2022/08/31 02:13:21;;;;;;;4.38;3.03;;;;;;;;;;4783046;29;20074;-72
2022/08/31 02:15:51;;;;;;;7.22;3.95;;;;;;;;;;4782434;29;20059;-71
2022/08/31 02:18:22;;;;;;;5.78;4.10;;;;;;;;;;4782997;29;20058;-72
2022/08/31 02:20:54;;;;;;;5.78;3.55;;;;;;;;;;4799284;29;20503;-72
2022/08/31 02:23:26;;;;;;;6.18;3.53;;;;;;;;;;4782870;29;20062;-71
2022/08/31 02:25:57;;;;;;;10.15;4.45;;;;;;;;;;4799494;29;20051;-72
2022/08/31 02:28:27;;;;;;;7.78;4.40;;;;;;;;;;4784534;29;20062;-71
2022/08/31 02:30:56;;;;;;;;;;;;;;;;;;4785048;29;20086;-71
2022/08/31 02:33:26;;;;;;;4.78;2.95;;;;;;;;;;4785234;29;19924;-72
2022/08/31 02:35:58;;;;;;;6.03;4.07;;;;;;;;;;4786015;29;20055;-72
2022/08/31 02:38:31;;;;;;;5.85;3.92;;;;;;;;;;4786231;29;20058;-71
2022/08/31 02:41:03;;;;;;;6.95;4.50;;;;;;;;;;4785947;29;20059;-71
2022/08/31 02:43:35;;;;;;;7.90;4.13;;;;;;;;;;4785769;29;20427;-71
2022/08/31 02:46:05;;;;;;;6.82;4.45;;;;;;;;;;4785304;29;20058;-71
2022/08/31 02:48:41;;;;;;;8.95;4.47;;;;;;;;;;4785349;29;20058;-72
2022/08/31 02:51:16;;;;;;;7.95;4.45;;;;;;;;;;4785868;29;20062;-71
2022/08/31 02:53:48;;;;;;;7.03;4.65;;;;;;;;;;4786213;29;20419;-71
2022/08/31 02:56:18;;;;;;;7.03;4.93;;;;;;;;;;4803044;29;20047;-71
2022/08/31 02:58:53;;;;;;;;;;;;;;;;;;4803280;29;20046;-71
2022/08/31 03:01:25;;;;;;;7.35;3.72;;;;;;;;;;4785439;29;20403;-72
2022/08/31 03:03:56;;;;;;;7.95;4.47;;;;;;;;;;4785067;29;20055;-72
2022/08/31 03:06:28;;;;;;;6.88;4.43;;;;;;;;;;4784654;29;20541;-71
2022/08/31 03:08:59;;;;;;;8.52;4.97;;;;;;;;;;4785465;29;20065;-72
2022/08/31 03:11:29;;;;;;;6.80;4.60;;;;;;;;;;4785461;29;20066;-72
2022/08/31 03:13:59;;;;;;;7.50;5.25;;;;;;;;;;4785317;29;20431;-72
2022/08/31 03:16:29;;;;;;;6.82;4.07;;;;;;;;;;4784853;29;20058;-72
2022/08/31 03:18:58;;;;;;;;;;;;;;;;;;4785636;29;20065;-72
2022/08/31 03:21:28;;;;;;;9.13;4.60;;;;;;;;;;4785379;29;19948;-72
2022/08/31 03:23:57;;;;;;;7.70;3.88;;;;;;;;;;4784757;29;20074;-72
2022/08/31 03:26:28;;;;;;;8.90;5.30;;;;;;;;;;4801814;29;20054;-72
2022/08/31 03:28:57;;;;;;;;;;;;;;;;;;4801146;29;20081;-71
2022/08/31 03:31:45;;;;;;;7.70;5.35;;;;;;;;;;4805101;29;20295;-72
2022/08/31 03:34:15;;;;;;;7.13;4.75;;;;;;;;;;4785233;29;20391;-72
2022/08/31 03:36:46;;;;;;;9.40;4.85;;;;;;;;;;4784791;29;20063;-72
2022/08/31 03:39:15;;;;;;;;;;;;;;;;;;4784841;29;20055;-72
2022/08/31 03:41:45;;;;;;;6.10;4.63;;;;;;;;;;4801167;29;20329;-70
2022/08/31 03:44:14;;;;;;;;;;;;;;;;;;4784788;29;20692;-72
2022/08/31 03:46:46;;;;;;;6.43;4.10;;;;;;;;;;4784986;29;19936;-72
2022/08/31 03:49:20;;;;;;;8.95;4.55;;;;;;;;;;4785254;29;20082;-71
2022/08/31 03:52:20;;;;;;;8.18;4.80;;;;;;;;;;4793301;29;20058;-72
2022/08/31 03:55:05;;;;;;;8.13;5.13;;;;;;;;;;4784343;29;20413;-72
2022/08/31 03:57:35;;;;;;;8.90;4.63;;;;;;;;;;4784961;29;20545;-72
2022/08/31 04:00:06;;;;;;;8.02;5.35;;;;;;;;;;4784558;29;20055;-72
2022/08/31 04:02:43;;;;;;;10.60;4.55;;;;;;;;;;4805191;29;20062;-71
2022/08/31 04:05:41;;;;;;;8.23;4.32;;;;;;;;;;4803340;29;20054;-71
2022/08/31 04:08:15;;;;;;;6.63;4.30;;;;;;;;;;4801863;29;20533;-72
2022/08/31 04:10:48;;;;;;;10.10;5.05;;;;;;;;;;4800803;29;20074;-71
2022/08/31 04:13:35;;;;;;;7.72;4.40;;;;;;;;;;4803738;29;20065;-72
2022/08/31 04:16:39;;;;;;;9.65;5.20;;;;;;;;;;4800424;29;20062;-71
2022/08/31 04:19:36;;;;;;;8.35;4.22;;;;;;;;;;4798219;29;20066;-72
2022/08/31 04:22:25;;;;;;;5.03;3.72;;;;;;;;;;4785021;29;20070;-70
2022/08/31 04:25:18;;;;;;;6.10;4.18;;;;;;;;;;4794627;29;20512;-71
2022/08/31 04:27:49;;;;;;;4.75;3.63;;;;;;;;;;4800924;29;20043;-71
2022/08/31 04:30:20;;;;;;;7.85;4.88;;;;;;;;;;4800561;29;20065;-71
2022/08/31 04:32:53;;;;;;;7.00;4.50;;;;;;;;;;4799910;29;20518;-73
2022/08/31 04:35:23;;;;;;;6.82;4.03;;;;;;;;;;4783835;29;20058;-72
2022/08/31 04:37:54;;;;;;;5.65;3.78;;;;;;;;;;4784277;29;20070;-70
2022/08/31 04:40:24;;;;;;;7.93;4.72;;;;;;;;;;4784133;29;20059;-72
2022/08/31 04:42:55;;;;;;;6.38;3.72;;;;;;;;;;4783135;29;20063;-71
2022/08/31 04:45:24;;;;;;;;;;;;;;;;;;4784583;29;20058;-71
2022/08/31 04:47:54;;;;;;;7.18;4.00;;;;;;;;;;4769606;29;20012;-71
2022/08/31 04:50:24;;;;;;;;;;;;;;;;;;4784152;29;20484;-71
2022/08/31 04:53:09;;;;;;;5.32;3.97;;;;;;;;;;4784268;29;20412;-70
2022/08/31 04:55:41;;;;;;;6.35;3.88;;;;;;;;;;4783580;29;20066;-71
2022/08/31 04:58:14;;;;;;;7.13;5.20;;;;;;;;;;4800536;29;20055;-72
2022/08/31 05:00:44;;;;;;;6.45;4.13;;;;;;;;;;4783679;29;20063;-71
2022/08/31 05:03:49;;;;;;;6.68;4.13;;;;;;;;;;4778826;29;20063;-71
2022/08/31 05:06:23;;;;;;;6.15;3.88;;;;;;;;;;4799668;29;20063;-71
2022/08/31 05:08:57;;;;;;;8.48;4.45;;;;;;;;;;4783181;29;20062;-71
2022/08/31 05:11:28;;;;;;;9.45;4.60;;;;;;;;;;4783963;29;20062;-71
2022/08/31 05:14:00;;;;;;;6.78;4.85;;;;;;;;;;4783228;29;20054;-70
2022/08/31 05:16:30;;;;;;;4.65;3.97;;;;;;;;;;4784212;29;20066;-71
2022/08/31 05:19:01;;;;;;;11.40;4.75;;;;;;;;;;4799673;29;20067;-71
2022/08/31 05:21:35;;;;;;;6.25;4.00;;;;;;;;;;4783325;29;20557;-69
2022/08/31 05:24:12;;;;;;;8.55;5.25;;;;;;;;;;4768867;29;20563;-71
2022/08/31 05:26:50;;;;;;;8.00;5.30;;;;;;;;;;4783389;29;20058;-72
2022/08/31 05:29:24;;;;;;;7.30;5.20;;;;;;;;;;4783745;29;20519;-71
2022/08/31 05:32:14;;;;;;;7.25;4.80;;;;;;;;;;4783045;29;20534;-71
2022/08/31 05:34:46;;;;;;;6.45;4.20;;;;;;;;;;4783817;29;20062;-72
2022/08/31 05:37:18;;;;;;;10.90;4.75;;;;;;;;;;4783403;29;20063;-71
2022/08/31 05:39:52;;;;;;;6.45;4.55;;;;;;;;;;4782833;29;20519;-71
2022/08/31 05:42:21;;;;;;;9.57;5.07;;;;;;;;;;4799452;29;20069;-72
2022/08/31 05:44:51;;;;;;;8.02;5.05;;;;;;;;;;4783186;29;20066;-70
2022/08/31 05:47:21;;;;;;;6.30;4.90;;;;;;;;;;4783420;29;20059;-70
2022/08/31 05:49:52;;;;;;;7.20;5.50;;;;;;;;;;4783210;29;20427;-71
2022/08/31 05:52:23;;;;;;;6.95;4.70;;;;;;;;;;4783133;29;20097;-70
2022/08/31 05:54:55;;;;;;;7.88;4.20;;;;;;;;;;4782913;29;20055;-70
2022/08/31 05:57:24;;;;;;;5.82;4.55;;;;;;;;;;4782837;29;20059;-72
2022/08/31 05:59:56;;;;;;;10.27;5.35;;;;;;;;;;4783667;29;20066;-71
2022/08/31 06:02:27;;;;;;;9.18;5.05;;;;;;;;;;4784809;29;20054;-71
2022/08/31 06:04:59;;;;;;;6.70;4.28;;;;;;;;;;4785454;29;20074;-71
2022/08/31 06:07:30;;;;;;;6.97;4.10;;;;;;;;;;4786420;29;20059;-72
2022/08/31 06:10:02;;;;;;;8.60;4.97;;;;;;;;;;4785574;29;20055;-70
2022/08/31 06:12:33;;;;;;;8.75;5.07;;;;;;;;;;4786681;29;20055;-71
2022/08/31 06:15:06;;;;;;;7.35;4.93;;;;;;;;;;4786502;29;20059;-70
2022/08/31 06:17:37;;;;;;;5.85;4.75;;;;;;;;;;4786426;29;20065;-71
2022/08/31 06:20:08;;;;;;;6.43;4.72;;;;;;;;;;4786404;29;20605;-70
2022/08/31 06:22:46;;;;;;;5.95;4.35;;;;;;;;;;4787983;29;20058;-71
2022/08/31 06:25:29;;;;;;;5.97;4.57;;;;;;;;;;4786031;29;20508;-70
2022/08/31 06:27:59;;;;;;;;;;;;;;;;;;4786872;29;20054;-69
2022/08/31 06:30:28;;;;;;;4.65;3.30;;;;;;;;;;4785977;29;19936;-71
2022/08/31 06:33:01;;;;;;;11.63;4.10;;;;;;;;;;4802002;29;20078;-71
2022/08/31 06:35:46;;;;;;;6.85;4.28;;;;;;;;;;4785921;29;20063;-71
2022/08/31 06:38:35;;;;;;;6.07;4.25;;;;;;;;;;4802337;29;20059;-70
2022/08/31 06:41:25;;;;;;;9.77;4.68;;;;;;;;;;4805986;29;20062;-71
2022/08/31 06:44:22;;;;;;;6.95;4.80;;;;;;;;;;4801684;29;20059;-71
2022/08/31 06:47:06;;;;;;;6.32;4.15;;;;;;;;;;4785550;29;20423;-71
2022/08/31 06:49:39;;;;;;;4.00;3.58;;;;;;;;;;4785885;29;20089;-71
2022/08/31 06:52:09;;;;;;;8.00;4.32;;;;;;;;;;4785776;29;20063;-72
2022/08/31 06:54:41;;;;;;;6.03;4.28;;;;;;;;;;4785933;29;20431;-71
2022/08/31 06:57:29;;;;;;;;;;;;;;;;;;4807367;29;20054;-71
2022/08/31 07:00:17;;;;;;;5.82;4.38;;;;;;;;;;4804677;29;19929;-71
2022/08/31 07:03:21;;;;;;;9.32;4.35;;;;;;;;;;4785478;29;20055;-71
2022/08/31 07:05:53;;;;;;;7.97;4.28;;;;;;;;;;4801564;29;20080;-71
2022/08/31 07:08:24;;;;;;;6.07;4.25;;;;;;;;;;4785803;29;20063;-70
2022/08/31 07:10:53;;;;;;;6.22;3.92;;;;;;;;;;4785539;29;20071;-71
2022/08/31 07:13:23;;;;;;;8.52;4.15;;;;;;;;;;4801229;29;20060;-71
2022/08/31 07:16:04;;;;;;;6.20;4.32;;;;;;;;;;4785253;29;20058;-72
2022/08/31 07:18:34;;;;;;;6.78;4.38;;;;;;;;;;4785213;29;20058;-70
2022/08/31 07:21:15;;;;;;;6.88;4.07;;;;;;;;;;4784856;29;20051;-71
2022/08/31 07:23:48;;;;;;;6.32;4.43;;;;;;;;;;4785334;29;20055;-71
2022/08/31 07:26:24;;;;;;;7.47;4.38;;;;;;;;;;4785228;29;20062;-71
2022/08/31 07:28:56;;;;;;;7.55;4.35;;;;;;;;;;4784863;29;20070;-70
2022/08/31 07:31:49;;;;;;;7.15;4.03;;;;;;;;;;4784686;29;20054;-72
2022/08/31 07:34:25;;;;;;;5.00;3.83;;;;;;;;;;4799593;29;20062;-71
2022/08/31 07:42:54;;;;;;;6.88;4.10;;;;;;;;;;4799167;29;20054;-70
2022/08/31 07:45:25;;;;;;;4.72;3.58;;;;;;;;;;4799380;29;20051;-71
2022/08/31 07:48:03;;;;;;;5.25;3.38;;;;;;;;;;4799558;29;20515;-71
2022/08/31 07:50:55;;;;;;;3.92;3.00;;;;;;;;;;4800712;29;20063;-70
2022/08/31 07:54:09;;;;;;;10.02;3.10;;;;;;;;;;4744845;30;20060;-71
2022/08/31 07:57:16;;;;;;;5.78;3.28;;;;;;;;;;4733809;30;20208;-70
2022/08/31 08:00:05;;;;;;;6.90;3.42;;;;;;;;;;4729195;30;20583;-71
2022/08/31 08:02:52;;;;;;;8.55;3.25;;;;;;;;;;4729797;30;20694;-71
2022/08/31 08:05:40;;;;;;;7.00;4.03;;;;;;;;;;4729687;30;20063;-71
2022/08/31 08:08:41;;;;;;;5.10;3.15;;;;;;;;;;4790376;29;20063;-71
2022/08/31 08:12:07;;;;;;;6.32;3.17;;;;;;;;;;4799070;29;20058;-70
2022/08/31 08:15:07;;;;;;;4.28;2.42;;;;;;;;;;4798685;29;20059;-70
2022/08/31 08:18:12;;;;;;;7.85;3.20;;;;;;;;;;4794992;29;20058;-70
2022/08/31 08:20:54;;;;;;;5.28;2.42;;;;;;;;;;4784796;29;20067;-71
2022/08/31 08:23:24;;;;;;;3.97;2.83;;;;;;;;;;4798612;29;20423;-70
2022/08/31 08:26:15;;;;;;;4.03;2.20;;;;;;;;;;4802133;29;20063;-72
2022/08/31 08:29:10;;;;;;;2.88;2.33;;;;;;;;;;4771715;29;20063;-70
2022/08/31 08:31:50;;;;;;;4.40;2.70;;;;;;;;;;4798277;29;20055;-70
2022/08/31 08:34:22;;;;;;;5.00;2.85;;;;;;;;;;4798787;29;20089;-70
2022/08/31 08:37:06;;;;;;;6.70;2.85;;;;;;;;;;4798303;29;20448;-71
2022/08/31 08:39:38;;;;;;;4.47;2.85;;;;;;;;;;4798779;29;20070;-72
2022/08/31 08:42:16;;;;;;;3.63;2.63;;;;;;;;;;4798743;29;20066;-71
2022/08/31 08:44:46;;;;;;;4.88;2.33;;;;;;;;;;4798830;29;20772;-70
2022/08/31 08:47:24;;;;;;;4.18;2.63;;;;;;;;;;4798545;29;20058;-73
2022/08/31 08:50:06;;;;;;;3.70;2.17;;;;;;;;;;4797905;29;20062;-72
2022/08/31 08:52:45;;;;;;;4.50;1.98;;;;;;;;;;4798527;29;20051;-72
2022/08/31 08:55:25;;;;;;;2.80;2.00;;;;;;;;;;4797839;29;20462;-70
2022/08/31 08:57:58;;;;;;;3.47;1.83;;;;;;;;;;4798321;29;20054;-78
2022/08/31 09:00:28;;;;;;;3.70;2.63;;;;;;;;;;4799851;29;20047;-72
2022/08/31 09:03:20;;;;;;;3.38;2.00;;;;;;;;;;4798299;29;20074;-72
2022/08/31 09:06:09;;;;;;;;;;;;;;;;;;4801191;29;20055;-70
2022/08/31 09:09:08;;;;;;;4.00;2.15;;;;;;;;;;4798143;29;19929;-72
2022/08/31 09:12:12;;;;;;;2.47;1.52;;;;;;;;;;4797629;29;20503;-72
